Time;durP1;ratioP1;P1;durP2;ratioP2;P2;SDS_P1;SDS_P2;PMS_P1;PMS_P2;Temp;Humidity;BMP_temperature;BMP_pressure;BME280_temperature;BME280_humidity;BME280_pressure;Samples;Min_cycle;Max_cycle;Signal;HPM_P1;HPM_P2
2021/03/06 00:01:31;;;;;;;15.07;7.33;;;;;;;12.11;31.56;94674.31;5014091;28;20231;-70
2021/03/06 00:03:56;;;;;;;14.17;7.30;;;;;;;11.92;31.54;94653.78;5013781;28;20165;-71
2021/03/06 00:06:21;;;;;;;13.57;7.23;;;;;;;11.85;32.18;94670.50;5013958;28;20169;-71
2021/03/06 00:08:47;;;;;;;18.27;8.00;;;;;;;11.89;32.79;94668.63;5013883;28;20173;-70
2021/03/06 00:11:12;;;;;;;18.73;7.93;;;;;;;12.06;32.28;94667.34;5013622;28;20173;-70
2021/03/06 00:13:38;;;;;;;14.73;6.87;;;;;;;12.18;31.86;94675.22;5013808;28;20173;-70
2021/03/06 00:16:04;;;;;;;13.23;7.20;;;;;;;12.11;32.02;94677.00;5013308;28;20193;-70
2021/03/06 00:18:29;;;;;;;19.37;7.37;;;;;;;12.13;32.35;94678.19;5013830;28;20212;-70
2021/03/06 00:20:55;;;;;;;19.40;6.97;;;;;;;12.10;33.38;94684.25;5013282;28;20455;-70
2021/03/06 00:23:20;;;;;;;22.03;7.10;;;;;;;11.99;34.78;94677.19;5013189;28;20596;-70
2021/03/06 00:25:46;;;;;;;15.20;7.07;;;;;;;11.92;33.20;94685.88;5013336;28;20169;-70
2021/03/06 00:28:11;;;;;;;12.83;6.27;;;;;;;11.84;33.71;94681.53;5013449;28;20185;-72
2021/03/06 00:30:37;;;;;;;12.17;7.10;;;;;;;11.88;33.69;94696.50;5013402;28;20256;-69
2021/03/06 00:33:03;;;;;;;15.47;7.20;;;;;;;11.88;33.42;94691.16;5013242;28;20550;-70
2021/03/06 00:35:29;;;;;;;16.33;7.13;;;;;;;11.79;34.10;94684.50;5013543;28;20181;-76
2021/03/06 00:37:54;;;;;;;13.47;6.17;;;;;;;11.82;33.48;94684.56;5013155;28;20220;-70
2021/03/06 00:40:20;;;;;;;15.77;7.80;;;;;;;11.79;33.49;94660.41;5013305;28;20632;-72
2021/03/06 00:42:45;;;;;;;16.30;7.43;;;;;;;11.91;33.38;94682.44;5012948;28;20260;-69
2021/03/06 00:45:11;;;;;;;11.40;6.93;;;;;;;11.81;33.53;94668.84;5013046;28;20243;-70
2021/03/06 00:47:36;;;;;;;14.20;7.10;;;;;;;11.76;33.40;94674.50;5012810;28;20179;-70
2021/03/06 00:50:05;;;;;;;15.77;7.63;;;;;;;11.73;34.42;94672.53;5013377;28;20292;-71
2021/03/06 00:52:31;;;;;;;14.37;7.60;;;;;;;11.79;34.42;94690.63;5011133;28;20600;-71
2021/03/06 00:54:56;;;;;;;13.13;7.20;;;;;;;11.69;35.48;94679.72;5012997;28;20420;-72
2021/03/06 00:57:22;;;;;;;14.63;7.40;;;;;;;11.53;34.91;94658.44;5012942;28;20219;-71
2021/03/06 00:59:47;;;;;;;11.03;6.77;;;;;;;11.75;34.66;94671.06;5012667;28;20655;-71
2021/03/06 01:02:13;;;;;;;13.60;7.23;;;;;;;11.69;36.07;94675.16;5012819;28;20174;-71
2021/03/06 01:04:38;;;;;;;16.27;7.37;;;;;;;11.73;35.42;94678.66;5027723;28;20193;-71
2021/03/06 01:07:04;;;;;;;18.40;7.70;;;;;;;11.79;35.88;94673.78;5012778;28;20677;-70
2021/03/06 01:09:30;;;;;;;16.33;8.13;;;;;;;11.65;36.24;94672.41;5012545;28;20228;-70
2021/03/06 01:11:55;;;;;;;15.47;7.10;;;;;;;11.71;37.18;94661.41;5012674;28;20652;-71
2021/03/06 01:14:21;;;;;;;14.97;6.70;;;;;;;11.48;37.20;94672.09;5012501;28;20176;-71
2021/03/06 01:16:46;;;;;;;13.97;7.03;;;;;;;11.43;36.46;94661.69;5012458;28;20236;-71
2021/03/06 01:19:12;;;;;;;13.53;7.10;;;;;;;11.51;36.95;94664.16;5012415;28;20200;-71
2021/03/06 01:21:37;;;;;;;13.33;7.43;;;;;;;11.44;37.47;94647.97;5012534;28;20177;-71
2021/03/06 01:24:03;;;;;;;15.43;7.80;;;;;;;11.46;37.17;94671.69;5012504;28;20636;-72
2021/03/06 01:26:28;;;;;;;16.90;7.87;;;;;;;11.56;37.32;94655.03;5012200;28;20185;-71
2021/03/06 01:28:54;;;;;;;15.67;8.57;;;;;;;11.65;37.06;94655.59;5012568;28;20173;-70
2021/03/06 01:31:20;;;;;;;13.37;7.23;;;;;;;11.63;37.31;94660.53;5012100;28;20227;-71
2021/03/06 01:33:46;;;;;;;13.33;8.27;;;;;;;11.51;37.49;94653.47;5011563;28;20173;-70
2021/03/06 01:36:12;;;;;;;14.50;8.30;;;;;;;11.59;37.63;94660.47;5011963;28;20466;-72
2021/03/06 01:38:37;;;;;;;16.37;7.87;;;;;;;11.49;38.64;94661.06;5012320;28;20184;-71
2021/03/06 01:41:03;;;;;;;13.60;8.27;;;;;;;11.61;37.92;94662.78;5012067;28;20173;-72
2021/03/06 01:43:28;;;;;;;14.70;7.90;;;;;;;11.70;37.09;94662.56;5012205;28;20627;-76
2021/03/06 01:45:53;;;;;;;13.53;7.77;;;;;;;11.60;38.10;94661.22;5012124;28;20169;-73
2021/03/06 01:48:19;;;;;;;11.00;7.20;;;;;;;11.37;37.99;94658.53;5011787;28;20255;-71
2021/03/06 01:50:45;;;;;;;15.30;8.27;;;;;;;11.32;38.33;94656.94;5012132;28;20173;-75
2021/03/06 01:53:11;;;;;;;18.47;8.50;;;;;;;11.06;38.50;94664.88;5011665;28;20283;-70
2021/03/06 01:55:39;;;;;;;12.33;7.93;;;;;;;11.10;38.63;94663.00;5011992;28;20173;-71
2021/03/06 01:58:05;;;;;;;16.87;8.33;;;;;;;11.18;39.04;94662.03;5010573;28;21001;-71
2021/03/06 02:00:31;;;;;;;11.70;7.10;;;;;;;11.21;38.70;94665.88;5012029;28;20428;-71
2021/03/06 02:02:57;;;;;;;24.27;8.80;;;;;;;11.11;38.87;94667.22;5010474;28;20181;-70
2021/03/06 02:05:22;;;;;;;18.70;8.57;;;;;;;11.26;39.37;94665.59;5010679;28;20169;-71
2021/03/06 02:07:48;;;;;;;17.20;7.40;;;;;;;11.28;39.16;94661.47;5011730;28;20420;-70
2021/03/06 02:10:14;;;;;;;14.80;8.23;;;;;;;11.07;39.93;94664.50;5011772;28;20177;-70
2021/03/06 02:13:06;;;;;;;30.73;9.93;;;;;;;10.96;39.61;94665.44;5010762;28;20209;-71
2021/03/06 02:15:56;;;;;;;10.87;6.70;;;;;;;11.20;39.16;94675.81;4988580;28;20427;-71
2021/03/06 02:18:31;;;;;;;14.43;7.83;;;;;;;11.22;38.94;94660.19;5011588;28;20957;-74
2021/03/06 02:21:01;;;;;;;17.07;9.17;;;;;;;10.89;39.47;94666.06;5010588;28;20408;-75
2021/03/06 02:23:35;;;;;;;13.53;7.73;;;;;;;10.81;39.54;94670.47;5011483;28;20559;-70
2021/03/06 02:26:18;;;;;;;17.70;8.23;;;;;;;10.69;40.29;94665.28;5010447;28;20416;-71
2021/03/06 02:29:20;;;;;;;16.00;8.13;;;;;;;10.88;39.99;94666.41;5010575;28;20439;-71
2021/03/06 02:31:46;;;;;;;13.93;8.73;;;;;;;10.96;40.29;94676.88;5011406;28;20769;-72
2021/03/06 02:34:15;;;;;;;16.57;8.10;;;;;;;10.95;40.22;94670.00;5010473;28;20439;-75
2021/03/06 02:36:45;;;;;;;13.00;7.63;;;;;;;11.04;39.71;94667.88;5011176;28;20591;-71
2021/03/06 02:39:13;;;;;;;16.50;8.77;;;;;;;11.09;39.38;94672.16;4994610;28;20420;-71
2021/03/06 02:41:39;;;;;;;15.40;7.60;;;;;;;10.99;40.20;94670.06;5011397;28;20797;-71
2021/03/06 02:44:04;;;;;;;15.73;7.90;;;;;;;10.68;40.69;94684.31;4993907;28;20440;-71
2021/03/06 02:46:30;;;;;;;17.27;8.37;;;;;;;10.90;41.08;94682.88;5014829;28;20185;-71
2021/03/06 02:48:55;;;;;;;15.37;8.70;;;;;;;10.78;41.40;94670.41;5014239;28;20173;-70
2021/03/06 02:51:21;;;;;;;16.00;8.30;;;;;;;10.90;41.03;94682.88;5014786;28;20184;-75
2021/03/06 02:53:48;;;;;;;17.27;9.10;;;;;;;10.78;41.46;94684.53;5014017;28;20196;-72
2021/03/06 02:56:14;;;;;;;14.13;7.70;;;;;;;10.80;41.47;94684.97;5015044;28;20201;-70
2021/03/06 02:58:55;;;;;;;16.10;8.27;;;;;;;10.80;41.40;94698.31;4997755;28;20938;-71
2021/03/06 03:01:34;;;;;;;15.93;8.77;;;;;;;10.78;42.19;94695.22;5014978;28;20426;-70
2021/03/06 03:04:03;;;;;;;16.20;8.07;;;;;;;10.78;41.81;94703.25;5013883;28;20519;-71
2021/03/06 03:06:38;;;;;;;21.53;8.17;;;;;;;10.38;42.32;94692.06;4997676;28;20435;-75
2021/03/06 03:09:21;;;;;;;13.43;7.83;;;;;;;10.67;42.36;94702.25;5014966;28;20423;-70
2021/03/06 03:12:02;;;;;;;18.10;7.57;;;;;;;10.26;42.30;94699.03;5013755;28;20919;-71
2021/03/06 03:14:33;;;;;;;12.50;6.97;;;;;;;10.39;41.98;94707.75;5014780;28;21005;-70
2021/03/06 03:17:22;;;;;;;16.13;8.63;;;;;;;10.48;42.50;94713.63;5013485;28;20550;-71
2021/03/06 03:20:09;;;;;;;19.40;8.97;;;;;;;10.32;42.62;94723.56;5013481;28;20424;-70
2021/03/06 03:22:41;;;;;;;16.47;8.07;;;;;;;10.20;42.93;94716.41;5013727;28;20416;-71
2021/03/06 03:25:07;;;;;;;15.60;7.53;;;;;;;10.15;42.35;94734.56;4997506;28;20865;-70
2021/03/06 03:27:32;;;;;;;18.87;8.90;;;;;;;10.30;42.55;94729.25;5013469;28;20926;-70
2021/03/06 03:29:58;;;;;;;15.30;8.10;;;;;;;10.44;42.66;94734.16;5014488;28;20426;-70
2021/03/06 03:32:24;;;;;;;13.47;6.97;;;;;;;10.47;42.36;94732.69;4997302;28;20264;-70
2021/03/06 03:34:50;;;;;;;12.80;7.70;;;;;;;10.63;41.54;94736.09;5013205;28;21029;-71
2021/03/06 03:37:15;;;;;;;16.40;7.60;;;;;;;10.66;42.69;94731.94;4996893;28;20212;-71
2021/03/06 03:39:41;;;;;;;13.90;7.53;;;;;;;10.53;42.95;94733.97;5013128;28;20177;-70
2021/03/06 03:42:06;;;;;;;16.73;8.40;;;;;;;10.56;42.75;94735.94;4996730;28;20232;-71
2021/03/06 03:44:33;;;;;;;17.60;8.20;;;;;;;10.36;42.45;94743.13;5013204;28;20179;-71
2021/03/06 03:46:58;;;;;;;16.60;7.73;;;;;;;10.35;42.33;94741.56;5012877;28;20652;-70
2021/03/06 03:49:24;;;;;;;16.47;8.57;;;;;;;10.43;43.14;94740.59;5014254;28;20510;-70
2021/03/06 03:51:49;;;;;;;15.43;8.40;;;;;;;10.17;43.57;94740.38;4996542;28;20221;-71
2021/03/06 03:54:15;;;;;;;14.43;9.07;;;;;;;10.29;43.68;94753.63;5012889;28;20180;-70
2021/03/06 03:56:41;;;;;;;16.03;10.23;;;;;;;10.42;43.46;94755.06;4995222;28;20216;-71
2021/03/06 03:59:07;;;;;;;18.07;9.23;;;;;;;10.08;44.07;94733.28;5013082;28;20629;-76
2021/03/06 04:01:43;;;;;;;14.50;8.67;;;;;;;10.07;43.46;94754.97;4995942;28;20432;-70
2021/03/06 04:04:10;;;;;;;19.40;8.93;;;;;;;10.23;43.89;94755.78;4996733;28;20208;-72
2021/03/06 04:06:35;;;;;;;14.30;8.60;;;;;;;10.24;44.26;94757.34;4996384;28;20498;-74
2021/03/06 04:09:01;;;;;;;19.27;8.43;;;;;;;10.12;44.05;94765.41;5013600;28;20942;-74
2021/03/06 04:11:26;;;;;;;18.13;8.13;;;;;;;10.27;44.75;94771.91;5013938;28;20544;-70
2021/03/06 04:13:52;;;;;;;15.60;8.57;;;;;;;10.16;45.49;94765.50;5013571;28;20173;-70
2021/03/06 04:16:18;;;;;;;14.77;9.40;;;;;;;9.81;45.53;94774.16;5013729;28;20658;-75
2021/03/06 04:18:43;;;;;;;15.40;8.90;;;;;;;9.94;45.25;94772.19;5013510;28;20554;-75
2021/03/06 04:21:09;;;;;;;18.07;10.00;;;;;;;9.77;45.80;94770.63;5013659;28;20176;-73
2021/03/06 04:23:34;;;;;;;14.57;8.70;;;;;;;10.03;45.71;94781.56;5012196;28;20176;-71
2021/03/06 04:26:00;;;;;;;16.23;8.83;;;;;;;10.07;45.95;94787.00;5013588;28;20176;-70
2021/03/06 04:28:25;;;;;;;21.60;9.67;;;;;;;9.99;46.03;94779.94;5011772;28;20185;-70
2021/03/06 04:30:51;;;;;;;15.83;8.77;;;;;;;10.03;45.91;94776.22;5013556;28;20180;-75
2021/03/06 04:33:16;;;;;;;15.17;9.17;;;;;;;10.12;45.95;94777.97;5013472;28;20625;-69
2021/03/06 04:35:42;;;;;;;16.80;9.67;;;;;;;10.23;45.76;94784.34;5013284;28;20180;-70
2021/03/06 04:38:07;;;;;;;16.33;8.47;;;;;;;10.18;46.25;94785.38;5013381;28;20208;-70
2021/03/06 04:40:33;;;;;;;17.43;8.93;;;;;;;10.30;46.18;94787.19;5012970;28;20174;-75
2021/03/06 04:42:58;;;;;;;15.63;8.90;;;;;;;10.31;45.83;94770.06;5013267;28;20178;-70
2021/03/06 04:45:24;;;;;;;13.13;8.47;;;;;;;10.25;45.93;94795.47;5012963;28;20181;-71
2021/03/06 04:47:49;;;;;;;18.20;9.23;;;;;;;10.30;46.14;94787.97;5013243;28;20604;-72
2021/03/06 04:50:15;;;;;;;17.07;9.13;;;;;;;10.16;47.11;94794.84;5012916;28;20173;-72
2021/03/06 04:52:40;;;;;;;19.80;10.27;;;;;;;9.91;47.84;94802.97;5012871;28;20239;-71
2021/03/06 04:55:06;;;;;;;22.70;10.50;;;;;;;9.75;48.00;94802.19;5012692;28;20207;-69
2021/03/06 04:57:32;;;;;;;18.67;10.43;;;;;;;9.98;47.76;94791.72;5012840;28;20203;-71
2021/03/06 04:59:59;;;;;;;20.40;9.83;;;;;;;10.03;48.16;94802.13;5013057;28;20231;-70
2021/03/06 05:02:25;;;;;;;23.33;10.43;;;;;;;9.90;48.08;94800.66;5012777;28;20188;-71
2021/03/06 05:04:50;;;;;;;22.13;10.37;;;;;;;9.81;48.79;94808.81;5012888;28;20416;-70
2021/03/06 05:07:16;;;;;;;21.00;10.73;;;;;;;9.84;47.94;94805.47;5012599;28;20181;-73
2021/03/06 05:09:41;;;;;;;17.77;10.33;;;;;;;9.77;48.81;94826.63;5012684;28;20285;-70
2021/03/06 05:12:07;;;;;;;17.17;10.60;;;;;;;9.81;48.05;94832.81;5012338;28;20184;-75
2021/03/06 05:14:33;;;;;;;18.53;10.27;;;;;;;10.12;48.09;94839.34;5012756;28;20169;-73
2021/03/06 05:16:58;;;;;;;18.67;10.43;;;;;;;9.90;48.86;94849.44;5011310;28;20205;-71
2021/03/06 05:19:24;;;;;;;25.80;11.73;;;;;;;9.85;49.03;94856.91;5012675;28;20173;-70
2021/03/06 05:21:49;;;;;;;18.70;10.63;;;;;;;9.91;49.53;94856.31;5012583;28;20169;-69
2021/03/06 05:24:15;;;;;;;23.83;11.07;;;;;;;9.97;49.55;94862.97;5012365;28;20165;-72
2021/03/06 05:26:40;;;;;;;22.83;11.73;;;;;;;9.79;48.90;94867.81;5012448;28;20181;-70
2021/03/06 05:29:06;;;;;;;24.77;12.87;;;;;;;9.27;52.35;94884.66;5012418;28;20177;-70
2021/03/06 05:31:31;;;;;;;17.60;11.17;;;;;;;9.32;51.84;94880.97;5012509;28;20213;-74
2021/03/06 05:33:57;;;;;;;26.53;12.50;;;;;;;9.24;52.75;94895.97;5012168;28;20191;-71
2021/03/06 05:36:23;;;;;;;24.83;12.80;;;;;;;9.18;53.80;94899.19;5012219;28;20681;-72
2021/03/06 05:38:49;;;;;;;34.47;14.30;;;;;;;9.38;53.67;94894.84;5010850;28;20647;-72
2021/03/06 05:41:18;;;;;;;32.60;14.93;;;;;;;9.17;54.22;94901.09;5012056;28;20478;-74
2021/03/06 05:43:43;;;;;;;26.00;15.33;;;;;;;9.35;55.09;94900.84;5012078;28;20161;-72
2021/03/06 05:46:09;;;;;;;29.00;15.23;;;;;;;9.38;55.94;94905.50;5012196;28;20415;-71
2021/03/06 05:48:34;;;;;;;26.73;15.13;;;;;;;8.97;57.57;94907.31;5010900;28;20648;-69
2021/03/06 05:51:01;;;;;;;34.93;17.10;;;;;;;8.96;57.83;94924.41;5010807;28;20180;-72
2021/03/06 05:53:26;;;;;;;29.07;16.80;;;;;;;9.12;57.49;94927.94;5011943;28;20233;-71
2021/03/06 05:55:54;;;;;;;33.10;17.30;;;;;;;9.30;57.69;94931.16;5010130;28;20463;-71
2021/03/06 05:58:20;;;;;;;28.40;15.73;;;;;;;8.84;58.61;94941.16;5010614;28;20263;-71
2021/03/06 06:00:46;;;;;;;31.10;16.03;;;;;;;8.88;58.95;94947.38;5011729;28;20458;-71
2021/03/06 06:03:11;;;;;;;32.83;16.17;;;;;;;9.11;59.08;94952.25;5011851;28;20440;-72
2021/03/06 06:05:37;;;;;;;31.63;16.20;;;;;;;8.77;58.81;94953.47;5011627;28;20176;-71
2021/03/06 06:08:03;;;;;;;29.93;16.10;;;;;;;8.69;59.67;94969.19;5010639;28;20643;-70
2021/03/06 06:10:30;;;;;;;28.30;15.97;;;;;;;8.85;60.03;94963.22;5011693;28;20252;-72
2021/03/06 06:12:59;;;;;;;21.40;13.00;;;;;;;8.69;61.79;94977.19;5011570;28;20422;-71
2021/03/06 06:15:24;;;;;;;22.17;12.50;;;;;;;8.56;61.03;94986.25;5011632;28;20416;-70
2021/03/06 06:17:50;;;;;;;18.60;11.37;;;;;;;8.67;60.46;94995.38;5011762;28;20475;-70
2021/03/06 06:20:18;;;;;;;19.60;11.47;;;;;;;8.64;60.90;95000.56;5011112;28;20587;-73
2021/03/06 06:22:44;;;;;;;16.63;9.53;;;;;;;8.39;61.13;94999.72;5011539;28;20176;-73
2021/03/06 06:25:10;;;;;;;15.53;9.97;;;;;;;8.21;60.57;95009.72;5010516;28;20772;-71
2021/03/06 06:27:35;;;;;;;14.37;8.53;;;;;;;7.65;61.05;95031.25;5011537;28;20203;-74
2021/03/06 06:30:13;;;;;;;12.50;7.37;;;;;;;7.60;61.69;95034.09;5011724;28;20204;-71
2021/03/06 06:32:43;;;;;;;13.70;7.63;;;;;;;7.08;62.29;95033.56;5010176;28;20204;-69
2021/03/06 06:35:10;;;;;;;13.10;8.53;;;;;;;7.32;61.95;95068.31;5011710;28;20942;-70
2021/03/06 06:37:36;;;;;;;12.90;7.97;;;;;;;7.64;61.10;95066.91;5011361;28;20478;-70
2021/03/06 06:40:19;;;;;;;9.13;6.70;;;;;;;7.51;61.24;95081.19;5011547;28;20436;-70
2021/03/06 06:42:44;;;;;;;10.23;6.53;;;;;;;7.71;60.08;95092.97;5011483;28;20207;-69
2021/03/06 06:45:11;;;;;;;8.90;5.90;;;;;;;7.64;60.32;95103.34;5010428;28;20424;-69
2021/03/06 06:47:40;;;;;;;9.67;6.17;;;;;;;7.44;61.35;95107.47;5011183;28;20632;-69
2021/03/06 06:50:08;;;;;;;8.17;5.80;;;;;;;6.84;61.09;95111.06;5011542;28;20440;-70
2021/03/06 06:52:40;;;;;;;7.07;4.80;;;;;;;7.14;61.85;95128.69;5009833;28;20892;-69
2021/03/06 06:55:10;;;;;;;7.50;5.87;;;;;;;6.94;61.22;95129.34;5011308;28;20463;-69
2021/03/06 06:57:47;;;;;;;9.50;6.17;;;;;;;7.16;61.15;95129.13;5011145;28;20478;-69
2021/03/06 07:00:13;;;;;;;6.53;4.53;;;;;;;6.89;61.73;95134.81;4993319;28;20443;-71
2021/03/06 07:02:49;;;;;;;7.97;4.90;;;;;;;6.78;62.98;95134.34;5009420;28;20877;-69
2021/03/06 07:05:27;;;;;;;6.67;4.90;;;;;;;6.84;62.42;95135.75;5010319;28;20419;-69
2021/03/06 07:07:52;;;;;;;6.17;4.13;;;;;;;7.05;61.26;95143.06;5010001;28;20423;-69
2021/03/06 07:10:18;;;;;;;7.03;4.80;;;;;;;7.03;61.66;95145.25;5011332;28;20431;-69
2021/03/06 07:13:03;;;;;;;4.60;3.97;;;;;;;6.71;61.13;95144.66;5011054;28;20173;-70
2021/03/06 07:15:30;;;;;;;4.93;4.10;;;;;;;6.61;61.66;95148.41;5011257;28;20239;-71
2021/03/06 07:17:57;;;;;;;6.57;4.60;;;;;;;6.36;63.91;95152.63;5010830;28;20477;-70
2021/03/06 07:20:22;;;;;;;5.27;4.47;;;;;;;6.28;63.50;95152.59;5009904;28;20451;-70
2021/03/06 07:22:48;;;;;;;7.40;4.40;;;;;;;6.16;64.45;95155.09;5011181;28;20573;-70
2021/03/06 07:25:14;;;;;;;9.43;4.70;;;;;;;6.16;63.52;95152.44;5011093;28;20254;-69
2021/03/06 07:27:41;;;;;;;6.47;3.93;;;;;;;6.09;63.27;95153.69;5010882;28;20512;-68
2021/03/06 07:30:07;;;;;;;6.07;4.28;;;;;;;5.97;63.73;95168.63;5010000;28;20204;-73
2021/03/06 07:32:33;;;;;;;6.97;5.07;;;;;;;5.53;64.89;95178.28;5012547;28;20191;-71
2021/03/06 07:35:01;;;;;;;6.47;5.07;;;;;;;5.85;64.95;95174.50;4997127;28;20185;-70
2021/03/06 07:37:26;;;;;;;6.47;5.03;;;;;;;5.90;65.91;95187.63;5014422;28;20275;-71
2021/03/06 07:39:52;;;;;;;7.67;5.27;;;;;;;5.93;65.20;95183.59;4996604;28;20188;-72
2021/03/06 07:42:26;;;;;;;5.70;4.33;;;;;;;5.58;65.30;95196.69;4996740;28;20189;-71
2021/03/06 07:44:53;;;;;;;7.60;4.27;;;;;;;5.69;66.08;95187.38;5014386;28;20195;-74
2021/03/06 07:47:18;;;;;;;6.28;4.25;;;;;;;5.69;66.65;95205.13;4996984;28;20420;-74
2021/03/06 07:49:44;;;;;;;5.47;3.70;;;;;;;5.74;66.58;95195.19;5014054;28;20564;-70
2021/03/06 07:52:09;;;;;;;6.13;4.30;;;;;;;5.71;71.02;95200.31;5012994;28;20221;-72
2021/03/06 07:54:36;;;;;;;5.73;3.90;;;;;;;6.21;66.29;95202.69;4996381;28;20177;-69
2021/03/06 07:57:01;;;;;;;4.03;3.53;;;;;;;6.45;65.50;95203.03;5014128;28;20224;-69
2021/03/06 07:59:46;;;;;;;5.40;4.10;;;;;;;6.04;65.82;95216.66;5012757;28;20493;-72
2021/03/06 08:02:31;;;;;;;5.10;3.43;;;;;;;6.08;66.48;95207.03;5013870;28;20264;-72
2021/03/06 08:04:57;;;;;;;5.83;4.00;;;;;;;6.29;66.26;95226.56;5013923;28;20939;-73
2021/03/06 08:07:44;;;;;;;6.37;3.90;;;;;;;5.90;68.79;95234.53;5013922;28;20420;-69
2021/03/06 08:10:10;;;;;;;7.40;3.80;;;;;;;5.90;66.51;95227.38;5012247;28;20656;-72
2021/03/06 08:12:37;;;;;;;4.53;2.93;;;;;;;5.94;65.88;95225.69;5013411;28;20474;-71
2021/03/06 08:15:32;;;;;;;4.50;2.97;;;;;;;5.61;66.33;95225.19;5013692;28;20427;-71
2021/03/06 08:17:58;;;;;;;3.40;2.90;;;;;;;5.73;65.99;95238.69;4933649;29;20317;-67
2021/03/06 08:20:28;;;;;;;4.28;3.08;;;;;;;5.69;66.76;95245.66;4934062;29;20186;-68
2021/03/06 08:23:16;;;;;;;3.13;2.27;;;;;;;5.70;66.98;95251.75;4933832;29;20191;-69
2021/03/06 08:25:41;;;;;;;5.07;2.90;;;;;;;5.74;67.03;95250.06;4934107;29;20469;-67
2021/03/06 08:28:26;;;;;;;6.77;2.87;;;;;;;5.66;67.17;95258.72;4933675;29;20982;-67
2021/03/06 08:30:52;;;;;;;3.03;2.77;;;;;;;5.69;67.79;95263.44;4934109;29;20207;-67
2021/03/06 08:33:17;;;;;;;2.93;2.57;;;;;;;5.54;67.30;95262.72;4933677;29;20435;-69
2021/03/06 08:35:43;;;;;;;4.57;2.70;;;;;;;5.48;67.42;95257.84;4917982;29;20246;-69
2021/03/06 08:38:29;;;;;;;4.50;3.47;;;;;;;5.78;66.85;95266.88;4933556;29;20262;-68
2021/03/06 08:40:54;;;;;;;5.72;3.55;;;;;;;5.62;66.53;95261.22;4933653;29;20196;-69
2021/03/06 08:43:20;;;;;;;4.50;2.93;;;;;;;5.63;67.04;95264.66;4932686;29;20238;-70
2021/03/06 08:45:46;;;;;;;5.47;3.20;;;;;;;5.58;65.46;95281.44;4933363;29;20247;-68
2021/03/06 08:48:11;;;;;;;3.90;2.83;;;;;;;5.45;65.44;95280.44;4933336;29;20235;-69
2021/03/06 08:50:37;;;;;;;3.70;2.73;;;;;;;5.54;65.25;95278.63;4933528;29;20191;-69
2021/03/06 08:53:07;;;;;;;4.23;3.23;;;;;;;5.36;65.43;95294.72;4933206;29;20273;-69
2021/03/06 08:55:34;;;;;;;4.10;3.25;;;;;;;5.42;67.01;95288.97;4992244;28;20675;-70
2021/03/06 08:58:03;;;;;;;4.93;2.70;;;;;;;5.47;66.56;95288.84;4991849;28;20601;-70
2021/03/06 09:00:30;;;;;;;4.32;2.92;;;;;;;5.31;66.40;95306.97;4993304;28;20425;-72
2021/03/06 09:02:55;;;;;;;5.22;3.50;;;;;;;5.26;65.16;95301.78;4992950;28;20631;-72
2021/03/06 09:05:22;;;;;;;4.20;3.80;;;;;;;5.26;65.65;95301.78;4992176;28;20268;-69
2021/03/06 09:07:49;;;;;;;5.88;3.33;;;;;;;5.30;65.73;95312.56;4993114;28;20213;-73
2021/03/06 09:10:16;;;;;;;3.20;2.85;;;;;;;5.19;65.67;95314.69;4991774;28;20281;-74
2021/03/06 09:12:42;;;;;;;4.35;3.13;;;;;;;5.25;63.71;95320.63;4993317;28;20180;-73
2021/03/06 09:15:11;;;;;;;4.53;3.23;;;;;;;5.29;64.69;95321.59;4991743;28;20182;-68
2021/03/06 09:17:36;;;;;;;3.10;2.50;;;;;;;5.02;63.83;95319.84;4992956;28;20216;-74
2021/03/06 09:20:06;;;;;;;4.10;3.20;;;;;;;5.05;65.91;95327.19;5007825;28;20185;-68
2021/03/06 09:22:46;;;;;;;4.23;2.77;;;;;;;5.16;63.93;95330.38;4993329;28;20204;-69
2021/03/06 09:25:12;;;;;;;4.57;3.38;;;;;;;5.30;65.63;95329.25;4992615;28;20444;-68
2021/03/06 09:27:45;;;;;;;4.55;3.42;;;;;;;5.20;65.25;95336.63;5024064;28;20240;-70
2021/03/06 09:30:31;;;;;;;8.85;3.17;;;;;;;4.73;65.11;95330.78;4992498;28;20181;-70
2021/03/06 09:32:57;;;;;;;4.22;3.10;;;;;;;4.95;66.31;95325.53;4992552;28;20173;-71
2021/03/06 09:35:22;;;;;;;3.50;2.50;;;;;;;4.98;65.43;95330.22;4992786;28;20182;-70
2021/03/06 09:38:05;;;;;;;3.10;2.73;;;;;;;4.91;65.31;95332.50;4992721;28;20255;-70
2021/03/06 09:40:37;;;;;;;7.30;3.75;;;;;;;4.81;65.03;95321.34;4992645;28;20170;-69
2021/03/06 09:43:02;;;;;;;5.60;3.45;;;;;;;5.00;64.62;95337.88;4991272;28;20185;-69
2021/03/06 09:45:28;;;;;;;4.83;3.47;;;;;;;5.15;66.79;95332.22;4992624;28;20170;-72
2021/03/06 09:47:53;;;;;;;4.27;3.30;;;;;;;5.20;64.82;95340.06;5023716;28;20217;-69
2021/03/06 09:50:22;;;;;;;5.33;3.40;;;;;;;5.15;64.83;95334.09;5007514;28;20188;-70
2021/03/06 09:52:49;;;;;;;4.30;3.40;;;;;;;5.10;66.42;95329.69;4990960;28;20223;-69
2021/03/06 09:55:18;;;;;;;4.97;3.63;;;;;;;5.21;66.08;95327.59;5006047;28;20534;-73
2021/03/06 09:57:44;;;;;;;6.40;3.92;;;;;;;5.40;65.44;95344.13;5011510;28;20490;-69
2021/03/06 10:00:26;;;;;;;3.67;3.33;;;;;;;5.50;63.36;95346.53;5010396;28;20691;-70
2021/03/06 10:02:51;;;;;;;4.88;3.65;;;;;;;5.57;64.76;95356.72;5011896;28;20184;-72
2021/03/06 10:05:21;;;;;;;5.37;3.87;;;;;;;5.25;64.28;95353.19;5009938;28;20208;-69
2021/03/06 10:07:48;;;;;;;5.55;4.03;;;;;;;5.20;65.02;95355.94;4993989;28;20295;-73
2021/03/06 10:10:14;;;;;;;5.07;3.80;;;;;;;5.34;64.23;95358.56;5010028;28;20179;-68
2021/03/06 10:12:43;;;;;;;4.27;3.67;;;;;;;5.52;62.89;95360.25;4994074;28;20552;-73
2021/03/06 10:15:10;;;;;;;5.15;3.47;;;;;;;5.46;62.54;95364.09;5010105;28;20189;-68
2021/03/06 10:17:35;;;;;;;6.60;3.30;;;;;;;5.29;62.43;95356.03;5011282;28;20204;-70
2021/03/06 10:20:01;;;;;;;4.97;3.77;;;;;;;5.36;63.56;95377.56;5011079;28;20419;-71
2021/03/06 10:22:26;;;;;;;4.60;3.80;;;;;;;5.25;64.05;95377.03;5011391;28;20204;-73
2021/03/06 10:24:59;;;;;;;5.70;4.00;;;;;;;5.31;64.45;95370.53;5011183;28;20229;-70
2021/03/06 10:27:34;;;;;;;9.43;4.32;;;;;;;5.11;63.71;95375.50;5011589;28;20589;-70
2021/03/06 10:30:21;;;;;;;5.75;4.20;;;;;;;5.42;64.12;95379.03;5011460;28;20192;-70
2021/03/06 10:32:55;;;;;;;5.38;4.05;;;;;;;5.50;64.59;95386.28;5010610;28;20202;-73
2021/03/06 10:35:46;;;;;;;5.22;4.07;;;;;;;5.57;62.44;95381.34;5010936;28;20259;-68
2021/03/06 10:38:18;;;;;;;6.53;4.15;;;;;;;5.61;63.65;95378.84;5011032;28;20196;-69
2021/03/06 10:40:45;;;;;;;7.00;4.22;;;;;;;5.53;63.46;95369.75;5011129;28;20178;-71
2021/03/06 10:43:24;;;;;;;9.37;4.40;;;;;;;5.54;63.40;95371.31;5011149;28;20181;-72
2021/03/06 10:45:50;;;;;;;6.18;4.78;;;;;;;5.52;63.17;95364.78;5011488;28;20443;-72
2021/03/06 10:48:27;;;;;;;5.50;4.53;;;;;;;5.81;63.28;95369.66;5009372;28;20227;-72
2021/03/06 10:50:53;;;;;;;10.63;5.20;;;;;;;5.65;63.46;95371.09;5010129;28;20169;-71
2021/03/06 10:53:19;;;;;;;7.20;5.15;;;;;;;5.72;63.20;95364.28;5010789;28;20699;-72
2021/03/06 10:55:46;;;;;;;7.10;5.17;;;;;;;5.80;62.55;95360.13;5011038;28;20551;-70
2021/03/06 10:58:12;;;;;;;5.43;3.90;;;;;;;5.44;59.00;95370.78;5010904;28;20474;-69
2021/03/06 11:00:38;;;;;;;6.23;4.33;;;;;;;5.48;61.34;95359.28;5009765;28;20173;-73
2021/03/06 11:03:05;;;;;;;6.55;4.45;;;;;;;5.88;60.98;95370.00;5011102;28;20537;-68
2021/03/06 11:05:31;;;;;;;4.95;4.22;;;;;;;5.81;59.78;95353.75;5011268;28;20594;-69
2021/03/06 11:07:59;;;;;;;6.37;4.83;;;;;;;5.53;59.89;95359.16;5013515;28;20188;-68
2021/03/06 11:10:29;;;;;;;8.45;5.70;;;;;;;5.64;59.68;95361.59;5014626;28;20177;-72
2021/03/06 11:12:54;;;;;;;11.47;5.20;;;;;;;5.59;58.88;95362.47;5013556;28;20677;-68
2021/03/06 11:15:22;;;;;;;7.03;4.77;;;;;;;5.40;58.71;95346.00;5014632;28;20491;-72
2021/03/06 11:17:51;;;;;;;7.25;5.40;;;;;;;5.26;58.42;95343.38;5014723;28;20216;-66
2021/03/06 11:20:17;;;;;;;9.43;5.07;;;;;;;5.60;60.93;95345.50;5014372;28;20979;-68
2021/03/06 11:22:42;;;;;;;8.27;5.13;;;;;;;5.53;60.38;95340.63;5014694;28;20188;-71
2021/03/06 11:25:10;;;;;;;11.60;5.83;;;;;;;5.74;59.70;95348.09;5014381;28;20177;-69
2021/03/06 11:27:50;;;;;;;10.27;6.20;;;;;;;5.73;59.39;95352.63;5013323;28;20170;-69
2021/03/06 11:30:25;;;;;;;9.00;5.30;;;;;;;5.68;59.03;95341.34;5013839;28;20419;-72
2021/03/06 11:32:50;;;;;;;6.40;4.73;;;;;;;5.66;56.28;95343.50;5013179;28;20422;-70
2021/03/06 11:35:16;;;;;;;8.00;4.93;;;;;;;5.94;56.79;95330.91;5013998;28;20923;-72
2021/03/06 11:37:42;;;;;;;10.20;5.43;;;;;;;5.81;55.80;95322.72;5014321;28;20196;-71